Time;durP1;ratioP1;P1;durP2;ratioP2;P2;SDS_P1;SDS_P2;PMS_P1;PMS_P2;Temp;Humidity;BMP_temperature;BMP_pressure;BME280_temperature;BME280_humidity;BME280_pressure;Samples;Min_cycle;Max_cycle;Signal;HPM_P1;HPM_P2
2022/10/10 00:00:48;;;;;;;8.95;6.28;;;384.20;2329.60;;;;;;5027357;28;20049;-75
2022/10/10 00:03:14;;;;;;;10.77;5.57;;;384.10;2329.60;;;;;;5021702;28;20446;-76
2022/10/10 00:05:41;;;;;;;12.98;6.22;;;384.00;2329.60;;;;;;5006373;28;20033;-76
2022/10/10 00:08:07;;;;;;;17.20;5.82;;;384.00;2329.60;;;;;;5014517;28;20025;-75
2022/10/10 00:10:33;;;;;;;10.60;5.63;;;359.30;2329.60;;;;;;5001730;28;20018;-75
2022/10/10 00:12:59;;;;;;;10.13;5.53;;;384.00;2329.60;;;;;;5020753;28;20024;-76
2022/10/10 00:15:25;;;;;;;8.95;5.25;;;384.00;2329.60;;;;;;5017014;28;20018;-75
2022/10/10 00:17:50;;;;;;;8.48;4.88;;;384.00;2329.60;;;;;;4998121;28;20022;-75
2022/10/10 00:20:18;;;;;;;8.65;4.75;;;384.00;2329.60;;;;;;5000552;28;20053;-76
2022/10/10 00:22:44;;;;;;;12.38;4.95;;;384.00;2329.60;;;;;;5017923;28;20549;-76
2022/10/10 00:25:10;;;;;;;9.13;4.35;;;359.30;2329.60;;;;;;5016757;28;20069;-75
2022/10/10 00:27:37;;;;;;;10.35;4.78;;;359.30;2329.60;;;;;;5012524;28;20072;-76
2022/10/10 00:30:05;;;;;;;8.95;4.75;;;359.30;2329.60;;;;;;5020368;28;20021;-78
2022/10/10 00:32:31;;;;;;;8.85;4.53;;;359.20;2329.60;;;;;;5000239;28;20025;-75
2022/10/10 00:34:57;;;;;;;7.00;4.22;;;359.20;2329.60;;;;;;4994226;28;20377;-76
2022/10/10 00:37:23;;;;;;;9.30;4.55;;;359.30;2329.60;;;;;;5016137;28;20045;-76
2022/10/10 00:39:49;;;;;;;14.25;4.53;;;359.20;2329.60;;;;;;5014150;28;20084;-76
2022/10/10 00:42:16;;;;;;;8.00;4.60;;;359.20;2329.60;;;;;;5016957;28;20448;-75
2022/10/10 00:44:43;;;;;;;12.88;5.20;;;359.20;2329.60;;;;;;4997760;28;20018;-75
2022/10/10 00:47:10;;;;;;;8.77;3.80;;;359.20;2329.60;;;;;;5022198;28;20026;-77
2022/10/10 00:49:40;;;;;;;7.18;4.10;;;359.20;2329.60;;;;;;5014964;28;20089;-80
2022/10/10 00:52:08;;;;;;;8.18;4.22;;;359.20;2329.60;;;;;;5020180;28;20013;-76
2022/10/10 00:54:36;;;;;;;8.43;3.95;;;359.10;2329.60;;;;;;5020436;28;20021;-75
2022/10/10 00:57:10;;;;;;;8.52;4.28;;;359.20;2329.60;;;;;;5014674;28;20041;-75
2022/10/10 00:59:38;;;;;;;10.82;3.83;;;359.20;2329.60;;;;;;5002622;28;20013;-76
2022/10/10 01:02:05;;;;;;;6.28;3.80;;;359.20;2329.60;;;;;;5003033;28;20029;-76
2022/10/10 01:04:37;;;;;;;11.20;4.70;;;359.20;2329.60;;;;;;4998667;28;20072;-76
2022/10/10 01:07:07;;;;;;;6.78;3.80;;;359.20;2329.60;;;;;;5012456;28;20022;-75
2022/10/10 01:09:35;;;;;;;6.40;4.20;;;359.10;2329.60;;;;;;5021301;28;20469;-75
2022/10/10 01:12:06;;;;;;;7.28;3.95;;;359.10;2329.60;;;;;;5014613;28;20048;-76
2022/10/10 01:15:04;;;;;;;7.35;4.28;;;359.10;2329.60;;;;;;5017149;28;20021;-76
2022/10/10 01:17:58;;;;;;;7.80;4.05;;;359.10;2329.60;;;;;;5016985;28;20029;-76
2022/10/10 01:20:55;;;;;;;10.13;3.90;;;359.10;2329.60;;;;;;4953795;28;20458;-75
2022/10/10 01:23:34;;;;;;;;;;;359.00;2329.60;;;;;;4960275;28;20029;-75
2022/10/10 01:26:44;;;;;;;8.10;4.35;;;359.00;2329.60;;;;;;4954044;28;20402;-76
2022/10/10 01:29:23;;;;;;;8.95;4.60;;;359.00;2329.60;;;;;;4912961;29;20047;-76
2022/10/10 01:31:54;;;;;;;7.53;4.75;;;358.80;2329.60;;;;;;4912689;29;20032;-76
2022/10/10 01:34:35;;;;;;;10.90;4.28;;;358.80;2329.60;;;;;;4913394;29;20111;-75
2022/10/10 01:37:17;;;;;;;13.32;5.32;;;358.80;2329.60;;;;;;4913130;29;20032;-75
2022/10/10 01:39:55;;;;;;;8.32;4.53;;;358.70;2329.60;;;;;;4912733;29;20055;-77
2022/10/10 01:42:33;;;;;;;7.22;4.70;;;358.70;2329.60;;;;;;4912910;29;21801;-80
2022/10/10 01:44:58;;;;;;;8.82;4.07;;;358.60;2329.60;;;;;;4913119;29;20051;-75
2022/10/10 01:47:24;;;;;;;8.60;5.13;;;358.70;2329.60;;;;;;4912704;29;20036;-75
2022/10/10 01:49:54;;;;;;;11.02;5.53;;;358.70;2329.60;;;;;;4913217;29;20074;-76
2022/10/10 01:53:01;;;;;;;7.68;4.90;;;358.70;2329.60;;;;;;4912938;29;20032;-75
2022/10/10 01:55:44;;;;;;;10.17;5.27;;;358.80;2329.60;;;;;;4912863;29;20364;-76
2022/10/10 01:58:17;;;;;;;10.68;4.50;;;358.70;2329.60;;;;;;4920167;29;20075;-76
2022/10/10 02:01:15;;;;;;;9.77;4.90;;;358.70;2329.60;;;;;;4925967;29;20127;-75
2022/10/10 02:03:52;;;;;;;15.93;4.82;;;358.70;2329.60;;;;;;4924329;28;20503;-75
2022/10/10 02:06:39;;;;;;;8.65;5.30;;;358.70;2329.60;;;;;;5013971;28;20390;-76
2022/10/10 02:09:10;;;;;;;8.27;4.45;;;358.70;2329.60;;;;;;5016588;28;20072;-75
2022/10/10 02:11:38;;;;;;;11.45;5.60;;;358.60;2329.60;;;;;;5015707;28;20550;-76
2022/10/10 02:14:27;;;;;;;11.05;5.72;;;358.60;2329.60;;;;;;4996748;28;20044;-75
2022/10/10 02:16:56;;;;;;;10.52;5.45;;;358.60;2329.60;;;;;;5013944;28;20022;-76
2022/10/10 02:19:23;;;;;;;13.70;5.85;;;358.60;2329.60;;;;;;5014200;28;20025;-76
2022/10/10 02:21:51;;;;;;;9.40;5.93;;;358.50;2329.60;;;;;;5016326;28;20487;-75
2022/10/10 02:24:19;;;;;;;11.20;6.13;;;358.50;2329.60;;;;;;5016640;28;20026;-75
2022/10/10 02:26:50;;;;;;;7.75;4.93;;;358.50;2329.60;;;;;;5013790;28;20030;-76
2022/10/10 02:29:30;;;;;;;8.98;5.30;;;358.50;2329.60;;;;;;5015538;28;20018;-76
2022/10/10 02:32:22;;;;;;;11.35;5.22;;;358.40;2329.60;;;;;;4996015;28;20553;-76
2022/10/10 02:34:52;;;;;;;10.90;4.45;;;358.40;2329.60;;;;;;5016168;28;20018;-75
2022/10/10 02:37:18;;;;;;;7.60;4.63;;;358.40;2329.60;;;;;;4993449;28;20498;-75
2022/10/10 02:39:48;;;;;;;7.15;4.28;;;358.40;2329.60;;;;;;5019438;28;20112;-75
2022/10/10 02:42:16;;;;;;;10.07;5.35;;;358.40;2329.60;;;;;;5002836;28;20092;-76
2022/10/10 02:44:43;;;;;;;7.55;4.50;;;333.70;2329.60;;;;;;5020254;28;20412;-76
2022/10/10 02:47:09;;;;;;;9.32;4.40;;;333.70;2329.60;;;;;;5018291;28;20032;-75
2022/10/10 02:49:35;;;;;;;8.63;5.30;;;333.70;2329.60;;;;;;5002412;28;20395;-75
2022/10/10 02:52:01;;;;;;;10.25;4.82;;;333.70;2329.60;;;;;;5016987;28;20018;-77
2022/10/10 02:54:27;;;;;;;7.93;4.13;;;333.60;2329.60;;;;;;5019782;28;20105;-75
2022/10/10 02:56:53;;;;;;;10.93;4.47;;;333.60;2329.60;;;;;;5016928;28;20060;-75
2022/10/10 02:59:19;;;;;;;10.80;4.78;;;333.60;2329.60;;;;;;5018929;28;20026;-75
2022/10/10 03:01:45;;;;;;;10.10;4.35;;;333.60;2329.60;;;;;;5020269;28;20034;-75
2022/10/10 03:04:11;;;;;;;9.43;5.88;;;333.60;2329.60;;;;;;5024552;28;20065;-76
2022/10/10 03:06:37;;;;;;;9.80;5.15;;;358.40;2329.60;;;;;;5025158;28;20467;-75
2022/10/10 03:09:04;;;;;;;14.60;6.25;;;333.50;2329.60;;;;;;5016731;28;20022;-76
2022/10/10 03:11:30;;;;;;;10.43;5.95;;;333.50;2329.60;;;;;;5004542;28;20029;-75
2022/10/10 03:13:56;;;;;;;9.38;5.57;;;333.50;2329.60;;;;;;5007306;28;20017;-77
2022/10/10 03:16:22;;;;;;;10.55;4.72;;;333.40;2329.60;;;;;;5014251;28;20030;-76
2022/10/10 03:18:48;;;;;;;18.17;6.75;;;333.40;2329.60;;;;;;5001044;28;20037;-76
2022/10/10 03:21:14;;;;;;;10.35;4.18;;;333.40;2329.60;;;;;;5016496;28;20379;-77
2022/10/10 03:23:39;;;;;;;6.35;4.82;;;333.40;2329.60;;;;;;5019154;28;20018;-76
2022/10/10 03:26:05;;;;;;;13.95;4.70;;;333.30;2329.60;;;;;;5016656;28;20100;-75
2022/10/10 03:28:31;;;;;;;7.43;4.65;;;333.30;2329.60;;;;;;5020475;28;20042;-76
2022/10/10 03:30:57;;;;;;;12.73;4.78;;;333.30;2329.60;;;;;;5018979;28;20036;-75
2022/10/10 03:33:22;;;;;;;10.23;4.70;;;333.30;2329.60;;;;;;5013770;28;20030;-75
2022/10/10 03:35:48;;;;;;;24.13;5.95;;;333.30;2329.60;;;;;;5016201;28;20423;-76
2022/10/10 03:38:15;;;;;;;16.77;5.30;;;333.30;2329.60;;;;;;5022376;28;20375;-75
2022/10/10 03:40:42;;;;;;;7.93;4.75;;;333.30;2329.60;;;;;;5002977;28;20030;-76
2022/10/10 03:43:10;;;;;;;9.30;4.45;;;333.30;2329.60;;;;;;5014262;28;20100;-76
2022/10/10 03:45:36;;;;;;;8.23;4.68;;;333.30;2329.60;;;;;;5018741;28;20029;-76
2022/10/10 03:48:02;;;;;;;7.15;4.60;;;333.30;2329.60;;;;;;5017936;28;20018;-75
2022/10/10 03:50:28;;;;;;;7.28;4.38;;;333.20;2329.60;;;;;;5019438;28;20017;-75
2022/10/10 03:52:54;;;;;;;8.40;4.80;;;333.20;2329.60;;;;;;5016033;28;20018;-79
2022/10/10 03:55:20;;;;;;;7.97;5.05;;;333.20;2329.60;;;;;;5015908;28;20030;-76
2022/10/10 03:57:46;;;;;;;9.77;4.38;;;333.20;2329.60;;;;;;5024012;28;20028;-75
2022/10/10 04:00:13;;;;;;;8.07;4.95;;;333.20;2329.60;;;;;;5021341;28;20487;-76
2022/10/10 04:02:38;;;;;;;12.27;5.90;;;333.30;2329.60;;;;;;4997401;28;20054;-75
2022/10/10 04:05:05;;;;;;;9.68;4.57;;;333.10;2329.60;;;;;;5018579;28;20018;-76
2022/10/10 04:07:31;;;;;;;8.55;4.55;;;333.10;2329.60;;;;;;5023799;28;20028;-76
2022/10/10 04:09:57;;;;;;;7.03;4.57;;;333.20;2329.60;;;;;;4995200;28;20022;-79
2022/10/10 04:12:23;;;;;;;12.40;5.10;;;333.10;2329.60;;;;;;5018246;28;20022;-76
2022/10/10 04:14:49;;;;;;;11.18;5.13;;;333.10;2329.60;;;;;;5018488;28;20083;-75
2022/10/10 04:17:14;;;;;;;16.88;6.70;;;333.10;2329.60;;;;;;4994667;28;20041;-75
2022/10/10 04:19:40;;;;;;;11.68;5.35;;;332.90;2329.60;;;;;;5012234;28;20041;-76
2022/10/10 04:22:06;;;;;;;13.73;6.20;;;332.80;2329.60;;;;;;5020751;28;20029;-76
2022/10/10 04:24:32;;;;;;;8.10;4.30;;;332.80;2329.60;;;;;;5023464;28;20375;-75
2022/10/10 04:26:58;;;;;;;10.50;4.97;;;332.90;2329.60;;;;;;5013561;28;20388;-76
2022/10/10 04:29:24;;;;;;;9.65;4.55;;;332.90;2329.60;;;;;;5021347;28;20018;-76
2022/10/10 04:31:50;;;;;;;7.25;4.47;;;332.90;2329.60;;;;;;5016387;28;20386;-76
2022/10/10 04:34:15;;;;;;;12.07;4.13;;;333.10;2329.60;;;;;;5014865;28;20392;-76
2022/10/10 04:36:41;;;;;;;8.45;5.47;;;332.90;2329.60;;;;;;5012478;28;20072;-75
2022/10/10 04:39:08;;;;;;;9.85;4.75;;;333.00;2329.60;;;;;;5014032;28;20025;-77
2022/10/10 04:41:34;;;;;;;7.68;4.97;;;333.10;2329.60;;;;;;5020323;28;20033;-77
2022/10/10 04:43:59;;;;;;;13.60;5.80;;;333.20;2329.60;;;;;;5002250;28;20411;-76
2022/10/10 04:46:25;;;;;;;14.10;6.65;;;333.20;2329.60;;;;;;5016698;28;20029;-77
2022/10/10 04:48:51;;;;;;;19.80;9.65;;;333.20;2329.60;;;;;;5013142;28;20027;-76
2022/10/10 04:51:17;;;;;;;15.35;8.48;;;333.20;2329.60;;;;;;5014534;28;20503;-75
2022/10/10 04:53:43;;;;;;;17.08;8.93;;;333.20;2329.60;;;;;;5012139;28;20025;-76
2022/10/10 04:56:09;;;;;;;14.05;7.65;;;333.30;2329.60;;;;;;5020128;28;20013;-75
2022/10/10 04:58:35;;;;;;;13.82;7.43;;;333.20;2329.60;;;;;;5014903;28;20014;-75
2022/10/10 05:01:00;;;;;;;12.50;6.78;;;333.30;2329.60;;;;;;5011754;28;20121;-74
2022/10/10 05:03:27;;;;;;;11.07;6.00;;;333.30;2329.60;;;;;;5019852;28;20535;-75
2022/10/10 05:05:54;;;;;;;8.85;5.97;;;332.90;2329.60;;;;;;5014511;28;20566;-76
2022/10/10 05:08:20;;;;;;;10.32;6.25;;;333.20;2329.60;;;;;;5012604;28;20141;-80
2022/10/10 05:10:46;;;;;;;28.58;9.38;;;333.00;2329.60;;;;;;5019518;28;20522;-75
2022/10/10 05:13:14;;;;;;;18.98;7.53;;;332.90;2329.60;;;;;;5014931;28;20104;-76
2022/10/10 05:15:41;;;;;;;11.05;5.50;;;333.00;2329.60;;;;;;5020005;28;20075;-76
2022/10/10 05:18:07;;;;;;;13.10;7.28;;;333.10;2329.60;;;;;;5014867;28;20025;-75
2022/10/10 05:20:35;;;;;;;11.15;6.00;;;333.10;2329.60;;;;;;5017162;28;20116;-73
2022/10/10 05:23:01;;;;;;;10.50;5.60;;;333.20;2329.60;;;;;;5012525;28;20079;-78
2022/10/10 05:25:27;;;;;;;10.70;5.40;;;333.20;2329.60;;;;;;5026726;28;20021;-79
2022/10/10 05:27:53;;;;;;;11.82;6.15;;;333.20;2329.60;;;;;;5018846;28;20026;-77
2022/10/10 05:30:19;;;;;;;11.55;5.80;;;333.30;2329.60;;;;;;5007948;28;20433;-76
2022/10/10 05:32:45;;;;;;;8.57;5.43;;;333.30;2329.60;;;;;;5045854;28;20076;-75
2022/10/10 05:35:11;;;;;;;11.95;5.50;;;333.30;2329.60;;;;;;5040967;28;20471;-76
2022/10/10 05:37:37;;;;;;;13.57;5.72;;;333.40;2329.60;;;;;;5037867;28;20029;-75
2022/10/10 05:40:03;;;;;;;12.15;5.82;;;333.40;2329.60;;;;;;5051719;28;20032;-75
2022/10/10 05:42:29;;;;;;;9.30;5.22;;;333.30;2329.60;;;;;;5038733;28;20025;-79
2022/10/10 05:44:55;;;;;;;9.27;5.28;;;333.30;2329.60;;;;;;5051806;28;20025;-78
2022/10/10 05:47:20;;;;;;;25.48;7.28;;;333.40;2329.60;;;;;;5052154;28;20386;-79
2022/10/10 05:49:46;;;;;;;28.13;9.45;;;333.50;2329.60;;;;;;5033868;28;20025;-81
2022/10/10 05:52:12;;;;;;;17.23;9.55;;;333.40;2329.60;;;;;;5035772;28;20504;-75
2022/10/10 05:54:38;;;;;;;17.73;9.90;;;333.30;2329.60;;;;;;5022633;28;20475;-75
2022/10/10 05:57:03;;;;;;;18.23;8.85;;;333.20;2329.60;;;;;;5051665;28;20111;-74
2022/10/10 05:59:29;;;;;;;16.52;8.20;;;333.20;2329.60;;;;;;5018396;28;20040;-76
2022/10/10 06:01:55;;;;;;;14.93;8.80;;;333.20;2329.60;;;;;;5034003;28;20040;-75
2022/10/10 06:04:22;;;;;;;16.90;8.57;;;333.20;2329.60;;;;;;5031339;28;20055;-80
2022/10/10 06:06:48;;;;;;;15.77;7.72;;;333.10;2329.60;;;;;;5032041;28;20017;-75
2022/10/10 06:09:14;;;;;;;37.20;11.45;;;333.10;2329.60;;;;;;5027827;28;20155;-77
2022/10/10 06:11:39;;;;;;;20.00;10.75;;;333.10;2329.60;;;;;;5031101;28;20045;-76
2022/10/10 06:14:06;;;;;;;19.15;10.00;;;333.10;2329.60;;;;;;5033902;28;20048;-81
2022/10/10 06:16:32;;;;;;;17.70;8.90;;;333.20;2329.60;;;;;;5041078;28;20372;-78
2022/10/10 06:18:57;;;;;;;20.23;9.15;;;333.20;2329.60;;;;;;5029211;28;20080;-77
2022/10/10 06:21:24;;;;;;;17.05;10.20;;;333.20;2329.60;;;;;;5049481;28;20388;-76
2022/10/10 06:23:50;;;;;;;18.67;10.27;;;333.20;2329.60;;;;;;5042862;28;20018;-77
2022/10/10 06:26:16;;;;;;;16.52;9.73;;;333.20;2329.60;;;;;;5021808;28;20095;-77
2022/10/10 06:28:42;;;;;;;20.70;10.95;;;333.30;2329.60;;;;;;5019203;28;20028;-75
2022/10/10 06:31:10;;;;;;;24.05;10.50;;;333.30;2329.60;;;;;;5027216;28;20082;-78
2022/10/10 06:33:36;;;;;;;14.02;9.38;;;333.50;2329.60;;;;;;5037797;28;20043;-76
2022/10/10 06:36:06;;;;;;;16.67;9.20;;;333.60;2329.60;;;;;;5037324;28;20071;-75
2022/10/10 06:38:38;;;;;;;18.48;10.65;;;333.70;2329.60;;;;;;5019428;28;20356;-77
2022/10/10 06:41:05;;;;;;;17.60;11.27;;;333.50;2329.60;;;;;;5035440;28;20372;-75
2022/10/10 06:43:33;;;;;;;20.42;12.77;;;333.50;2329.60;;;;;;5012886;28;20029;-78
2022/10/10 06:45:59;;;;;;;16.45;10.05;;;333.50;2329.60;;;;;;5020744;28;20018;-77
2022/10/10 06:48:25;;;;;;;19.80;12.23;;;333.60;2329.60;;;;;;5043841;28;20368;-75
2022/10/10 06:51:03;;;;;;;16.95;11.00;;;333.70;2329.60;;;;;;5020098;28;20041;-76
2022/10/10 06:53:30;;;;;;;19.42;10.85;;;358.40;2329.60;;;;;;5024779;28;20111;-77
2022/10/10 06:55:56;;;;;;;19.33;12.45;;;358.50;2329.60;;;;;;5054726;28;20032;-75
2022/10/10 06:58:23;;;;;;;26.95;15.95;;;358.60;2329.60;;;;;;5054686;28;20021;-77
2022/10/10 07:00:55;;;;;;;23.48;14.77;;;358.70;2329.60;;;;;;5036260;28;20036;-76
2022/10/10 07:03:21;;;;;;;31.08;19.20;;;358.80;2329.60;;;;;;5046896;28;20057;-76
2022/10/10 07:05:56;;;;;;;26.42;17.27;;;358.90;2329.60;;;;;;5045357;28;20108;-79
2022/10/10 07:08:22;;;;;;;25.70;14.38;;;359.10;2329.60;;;;;;5054592;28;20029;-79
2022/10/10 07:10:48;;;;;;;22.88;13.60;;;359.20;2329.60;;;;;;5026996;28;20533;-76
2022/10/10 07:13:15;;;;;;;24.05;15.65;;;359.20;2329.60;;;;;;5051885;28;20033;-78
2022/10/10 07:15:41;;;;;;;28.25;17.38;;;359.20;2329.60;;;;;;5054655;28;20017;-78
2022/10/10 07:18:07;;;;;;;26.13;15.52;;;359.20;2329.60;;;;;;5036583;28;20035;-83
2022/10/10 07:20:34;;;;;;;33.95;19.35;;;384.40;2329.60;;;;;;5054446;28;20068;-79
2022/10/10 07:23:00;;;;;;;36.50;23.52;;;384.20;2329.60;;;;;;5054553;28;20017;-77
2022/10/10 07:25:27;;;;;;;38.67;21.02;;;384.20;2329.60;;;;;;5054002;28;20017;-82
2022/10/10 07:27:52;;;;;;;37.63;23.15;;;384.40;2329.60;;;;;;5054164;28;20061;-76
2022/10/10 07:30:18;;;;;;;35.17;21.63;;;384.50;2329.60;;;;;;5022537;28;20070;-76
2022/10/10 07:32:44;;;;;;;43.50;28.25;;;384.40;2329.60;;;;;;5054143;28;20430;-77
2022/10/10 07:35:11;;;;;;;43.28;29.85;;;384.50;2329.60;;;;;;5036082;28;20025;-84
2022/10/10 07:37:37;;;;;;;42.63;27.88;;;384.60;2329.60;;;;;;5054274;28;20104;-77
2022/10/10 07:40:04;;;;;;;47.67;32.58;;;384.60;2329.60;;;;;;5035110;28;20032;-76
2022/10/10 07:42:30;;;;;;;52.67;33.92;;;384.60;2329.60;;;;;;5034218;28;20026;-77
2022/10/10 07:44:56;;;;;;;56.22;36.70;;;384.70;2329.60;;;;;;5028831;28;20036;-84
2022/10/10 07:47:22;;;;;;;60.00;36.50;;;384.90;2329.60;;;;;;5036327;28;20071;-77
2022/10/10 07:49:49;;;;;;;50.65;34.83;;;409.60;2355.20;;;;;;5053655;28;20017;-77
2022/10/10 07:52:14;;;;;;;52.60;36.60;;;409.70;2355.20;;;;;;5053836;28;20029;-76
2022/10/10 07:54:41;;;;;;;57.58;37.05;;;409.80;2355.20;;;;;;5053596;28;20527;-77
2022/10/10 07:57:07;;;;;;;48.72;34.38;;;409.80;2355.20;;;;;;5039488;28;20086;-77
2022/10/10 07:59:33;;;;;;;53.15;36.42;;;410.00;2355.20;;;;;;5046979;28;20096;-76
2022/10/10 08:01:58;;;;;;;53.10;37.40;;;410.20;2355.20;;;;;;5046055;28;20479;-78
2022/10/10 08:04:24;;;;;;;71.47;40.65;;;410.40;2355.20;;;;;;5048487;28;20577;-78
2022/10/10 08:06:50;;;;;;;48.13;37.20;;;410.50;2355.20;;;;;;5026461;28;20029;-85
2022/10/10 08:09:16;;;;;;;52.20;35.35;;;410.50;2355.20;;;;;;5039763;28;20017;-76
2022/10/10 08:11:42;;;;;;;44.83;34.95;;;410.50;2355.20;;;;;;5035616;28;20021;-76
2022/10/10 08:14:08;;;;;;;42.70;31.30;;;410.50;2355.20;;;;;;5052293;28;20052;-76
2022/10/10 08:16:33;;;;;;;44.30;32.72;;;435.20;2355.20;;;;;;5040263;28;20513;-79
2022/10/10 08:18:59;;;;;;;40.58;30.02;;;435.20;2355.20;;;;;;5035842;28;20025;-78
2022/10/10 08:21:25;;;;;;;44.20;32.70;;;435.30;2355.20;;;;;;5030274;28;20029;-79
2022/10/10 08:23:51;;;;;;;41.55;31.23;;;435.50;2355.20;;;;;;5044218;28;20032;-80
2022/10/10 08:26:18;;;;;;;48.70;35.15;;;435.40;2355.20;;;;;;5021040;28;20021;-77
2022/10/10 08:28:46;;;;;;;45.65;31.83;;;435.50;2355.20;;;;;;5035080;28;20028;-77
2022/10/10 08:31:14;;;;;;;46.95;34.95;;;435.50;2355.20;;;;;;5019815;28;20025;-81
2022/10/10 08:33:41;;;;;;;52.72;37.03;;;435.40;2355.20;;;;;;5033108;28;20028;-78
2022/10/10 08:36:10;;;;;;;52.42;36.40;;;435.50;2355.20;;;;;;5048276;28;20029;-78
2022/10/10 08:38:36;;;;;;;50.95;33.75;;;435.60;2355.20;;;;;;5034489;28;20471;-78
2022/10/10 08:41:36;;;;;;;45.58;32.85;;;435.70;2355.20;;;;;;5026913;28;20128;-81
2022/10/10 08:44:18;;;;;;;43.55;31.98;;;435.80;2355.20;;;;;;5020644;28;20021;-78
2022/10/10 08:46:55;;;;;;;52.05;34.05;;;435.80;2355.20;;;;;;5034885;28;20463;-79
2022/10/10 08:49:38;;;;;;;44.80;32.70;;;436.00;2355.20;;;;;;5045912;28;20026;-81
2022/10/10 08:52:22;;;;;;;28.17;20.67;;;436.10;2355.20;;;;;;5016382;28;20055;-81
2022/10/10 08:54:48;;;;;;;25.45;19.88;;;460.80;2380.80;;;;;;5035034;28;20025;-80
2022/10/10 08:57:28;;;;;;;30.23;20.33;;;460.90;2380.80;;;;;;5034379;28;20021;-78
2022/10/10 08:59:58;;;;;;;27.08;18.08;;;461.10;2380.80;;;;;;5042813;28;20033;-79
2022/10/10 09:02:47;;;;;;;25.08;17.05;;;461.10;2380.80;;;;;;5034616;28;20140;-78
2022/10/10 09:05:17;;;;;;;27.52;17.70;;;461.20;2380.80;;;;;;5034624;28;20029;-79
2022/10/10 09:07:59;;;;;;;21.83;16.75;;;461.30;2380.80;;;;;;5052345;28;20475;-78
2022/10/10 09:10:54;;;;;;;26.15;16.48;;;461.30;2380.80;;;;;;5040220;28;20025;-83
2022/10/10 09:13:47;;;;;;;23.10;16.52;;;461.40;2380.80;;;;;;5029954;28;20033;-76
2022/10/10 09:16:19;;;;;;;26.65;16.35;;;;;;;;;;5050468;28;20032;-80
2022/10/10 09:19:34;;;;;;;31.73;17.30;;;461.50;2380.80;;;;;;5023676;28;20379;-79
2022/10/10 09:22:05;;;;;;;25.15;17.45;;;461.50;2380.80;;;;;;4946496;28;20047;-78
2022/10/10 09:24:52;;;;;;;27.50;17.05;;;461.40;2380.80;;;;;;4968199;28;20911;-80
2022/10/10 09:27:30;;;;;;;23.70;16.65;;;461.50;2380.80;;;;;;4952391;28;20039;-80
2022/10/10 09:30:17;;;;;;;22.02;17.65;;;461.60;2380.80;;;;;;4954428;28;20122;-83
2022/10/10 09:32:49;;;;;;;25.63;17.60;;;461.50;2380.80;;;;;;4952087;28;20134;-80
2022/10/10 09:35:18;;;;;;;21.10;17.20;;;461.60;2380.80;;;;;;4942581;28;20436;-80
2022/10/10 09:37:44;;;;;;;25.38;17.02;;;486.40;2380.80;;;;;;4952191;28;20030;-79
2022/10/10 09:40:20;;;;;;;31.10;17.85;;;486.40;2380.80;;;;;;4954193;28;20038;-78
2022/10/10 09:42:46;;;;;;;29.05;17.30;;;486.50;2380.80;;;;;;4971363;28;20033;-77
2022/10/10 09:45:21;;;;;;;24.90;15.52;;;486.60;2380.80;;;;;;4941735;28;20508;-79
2022/10/10 09:47:50;;;;;;;21.97;17.10;;;486.60;2380.80;;;;;;4955340;28;20075;-80
2022/10/10 09:50:16;;;;;;;20.65;15.10;;;486.80;2380.80;;;;;;4974467;28;20026;-80
2022/10/10 09:52:43;;;;;;;25.02;14.10;;;486.80;2380.80;;;;;;4955771;28;20031;-80
2022/10/10 09:55:20;;;;;;;23.20;14.23;;;486.80;2380.80;;;;;;4952992;28;20121;-82
2022/10/10 09:57:49;;;;;;;23.50;15.43;;;486.80;2380.80;;;;;;4953267;28;20019;-81
2022/10/10 10:00:17;;;;;;;23.67;14.75;;;486.90;2380.80;;;;;;5010855;28;20060;-76
2022/10/10 10:02:47;;;;;;;25.73;15.15;;;486.90;2380.80;;;;;;5054651;28;20067;-78
2022/10/10 10:05:31;;;;;;;25.73;14.73;;;487.00;2380.80;;;;;;5037828;28;20494;-78
2022/10/10 10:07:57;;;;;;;19.63;14.57;;;487.10;2380.80;;;;;;5055644;28;20024;-84
2022/10/10 10:10:26;;;;;;;21.15;15.00;;;487.10;2380.80;;;;;;5025606;28;20030;-76
2022/10/10 10:12:55;;;;;;;23.80;15.27;;;487.30;2380.80;;;;;;5054067;28;20048;-75
2022/10/10 10:15:25;;;;;;;25.70;15.77;;;512.10;2380.80;;;;;;5044827;28;20025;-76
2022/10/10 10:18:09;;;;;;;30.30;16.20;;;512.30;2380.80;;;;;;5050860;28;20072;-76
2022/10/10 10:20:38;;;;;;;21.10;14.23;;;512.30;2380.80;;;;;;5047755;28;20033;-76
2022/10/10 10:23:05;;;;;;;20.02;14.45;;;512.50;2380.80;;;;;;5055517;28;20013;-76
2022/10/10 10:25:36;;;;;;;22.00;14.35;;;512.40;2380.80;;;;;;5037127;28;20702;-77
2022/10/10 10:28:11;;;;;;;27.30;15.45;;;512.50;2380.80;;;;;;5036704;28;20029;-77
2022/10/10 10:30:42;;;;;;;25.35;15.50;;;512.50;2380.80;;;;;;5055353;28;20021;-75
2022/10/10 10:33:11;;;;;;;24.75;14.13;;;512.70;2380.80;;;;;;5041303;28;20021;-76
2022/10/10 10:36:00;;;;;;;19.63;12.98;;;512.80;2380.80;;;;;;5048697;28;20026;-77
2022/10/10 10:38:48;;;;;;;19.65;13.60;;;512.80;2380.80;;;;;;5022970;28;20014;-75
2022/10/10 10:41:32;;;;;;;18.50;13.15;;;537.60;2406.40;;;;;;5022971;28;20029;-75
2022/10/10 10:44:30;;;;;;;19.63;13.05;;;538.00;2406.40;;;;;;5019661;28;20022;-77
2022/10/10 10:47:04;;;;;;;20.50;12.50;;;538.30;2406.40;;;;;;5036214;28;20104;-83
2022/10/10 10:49:52;;;;;;;18.45;12.40;;;538.10;2406.40;;;;;;5024727;28;20026;-78
2022/10/10 10:52:32;;;;;;;15.95;11.52;;;538.30;2406.40;;;;;;5042557;28;20032;-77
2022/10/10 10:55:21;;;;;;;18.05;12.40;;;538.10;2406.40;;;;;;5037301;28;20025;-81
2022/10/10 10:57:56;;;;;;;21.20;12.18;;;;;;;;;;5026880;28;20018;-82
2022/10/10 11:00:22;;;;;;;15.77;10.95;;;563.40;2432.00;;;;;;5034609;28;20060;-81
2022/10/10 11:02:56;;;;;;;21.48;12.27;;;563.60;2432.00;;;;;;5037062;28;20505;-80
2022/10/10 11:05:25;;;;;;;18.80;11.70;;;563.50;2432.00;;;;;;5016593;28;20025;-75
2022/10/10 11:08:09;;;;;;;24.00;13.43;;;563.60;2432.00;;;;;;5022357;28;20029;-81
2022/10/10 11:10:50;;;;;;;19.50;12.13;;;563.70;2432.00;;;;;;5022694;28;20071;-84
2022/10/10 11:13:34;;;;;;;20.92;11.90;;;563.70;2432.00;;;;;;5021281;28;20025;-78
2022/10/10 11:16:22;;;;;;;21.23;11.40;;;563.60;2432.00;;;;;;5028719;28;20018;-77
2022/10/10 11:19:24;;;;;;;18.90;10.68;;;563.70;2432.00;;;;;;5042908;28;20108;-77
2022/10/10 11:21:58;;;;;;;22.35;11.10;;;563.60;2432.00;;;;;;5005565;28;20077;-75
2022/10/10 11:24:38;;;;;;;21.30;10.23;;;563.60;2432.00;;;;;;5001974;28;20057;-83
2022/10/10 11:27:17;;;;;;;21.00;10.60;;;563.50;2432.00;;;;;;5031862;28;20088;-76
2022/10/10 11:30:16;;;;;;;17.42;11.02;;;563.60;2432.00;;;;;;5051037;28;20041;-76
2022/10/10 11:32:51;;;;;;;19.50;11.23;;;563.60;2432.00;;;;;;5048169;28;20029;-83
2022/10/10 11:35:40;;;;;;;20.40;11.23;;;563.70;2432.00;;;;;;5054510;28;20583;-81
2022/10/10 11:38:14;;;;;;;19.27;10.32;;;563.80;2432.00;;;;;;5028372;28;20046;-76
2022/10/10 11:40:55;;;;;;;15.07;10.85;;;563.60;2432.00;;;;;;5019119;28;20033;-76
2022/10/10 11:43:27;;;;;;;22.00;9.95;;;563.50;2432.00;;;;;;5019405;28;20104;-80
2022/10/10 11:46:00;;;;;;;16.08;10.73;;;563.20;2432.00;;;;;;5021312;28;20021;-75
2022/10/10 11:48:38;;;;;;;21.77;10.05;;;563.20;2432.00;;;;;;5054023;28;20112;-75
2022/10/10 11:51:21;;;;;;;20.00;11.23;;;538.50;2406.40;;;;;;5023891;28;20105;-80
2022/10/10 11:53:51;;;;;;;17.25;9.30;;;563.20;2432.00;;;;;;5018746;28;20053;-79
2022/10/10 11:56:38;;;;;;;15.77;9.10;;;563.20;2432.00;;;;;;5021747;28;20024;-75
2022/10/10 11:59:28;;;;;;;14.93;9.98;;;563.20;2432.00;;;;;;5003181;28;20112;-77
2022/10/10 12:01:58;;;;;;;15.18;10.18;;;563.20;2432.00;;;;;;5002322;28;20037;-76
2022/10/10 12:04:24;;;;;;;19.25;11.00;;;563.20;2432.00;;;;;;5020193;28;20041;-78
2022/10/10 12:06:59;;;;;;;14.40;10.15;;;563.20;2432.00;;;;;;5035675;28;20063;-75
2022/10/10 12:09:28;;;;;;;24.50;10.98;;;563.30;2432.00;;;;;;5039259;28;20035;-75
2022/10/10 12:11:59;;;;;;;20.58;10.32;;;563.60;2432.00;;;;;;5053022;28;20032;-75
2022/10/10 12:14:28;;;;;;;15.38;9.63;;;563.30;2432.00;;;;;;5026157;28;20030;-78
2022/10/10 12:16:55;;;;;;;23.33;11.07;;;538.50;2406.40;;;;;;5018522;28;20084;-76
2022/10/10 12:19:24;;;;;;;16.38;9.85;;;538.40;2406.40;;;;;;5021539;28;20030;-79
2022/10/10 12:22:03;;;;;;;19.40;11.40;;;538.40;2406.40;;;;;;5019083;28;20052;-84
2022/10/10 12:24:35;;;;;;;18.42;10.48;;;538.30;2406.40;;;;;;5022652;28;20096;-81